createdAt,value
2018-11-10T00:00:30.996Z,931.51
2018-11-10T00:01:30.983Z,931.49
2018-11-10T00:02:31.674Z,931.46
2018-11-10T00:03:30.962Z,931.47
2018-11-10T00:04:31.236Z,931.49
2018-11-10T00:05:30.935Z,931.47
2018-11-10T00:06:30.925Z,931.50
2018-11-10T00:07:31.052Z,931.49
2018-11-10T00:08:31.079Z,931.44
2018-11-10T00:09:30.890Z,931.43
2018-11-10T00:10:30.887Z,931.42
2018-11-10T00:11:30.868Z,931.43
2018-11-10T00:12:30.911Z,931.43
2018-11-10T00:13:30.933Z,931.43
2018-11-10T00:14:30.833Z,931.46
2018-11-10T00:15:30.822Z,931.45
2018-11-10T00:16:30.899Z,931.44
2018-11-10T00:17:30.813Z,931.44
2018-11-10T00:18:30.786Z,931.42
2018-11-10T00:19:30.845Z,931.40
2018-11-10T00:20:30.763Z,931.40
2018-11-10T00:21:30.753Z,931.38
2018-11-10T00:22:30.765Z,931.34
2018-11-10T00:23:30.744Z,931.37
2018-11-10T00:24:30.718Z,931.33
2018-11-10T00:25:31.245Z,931.31
2018-11-10T00:26:30.695Z,931.29
2018-11-10T00:27:30.700Z,931.26
2018-11-10T00:28:30.678Z,931.23
2018-11-10T00:29:30.679Z,931.25
2018-11-10T00:30:30.650Z,931.28
2018-11-10T00:31:30.636Z,931.27
2018-11-10T00:32:30.716Z,931.21
2018-11-10T00:33:30.615Z,931.25
2018-11-10T00:34:30.663Z,931.23
2018-11-10T00:35:30.600Z,931.21
2018-11-10T00:36:30.581Z,931.21
2018-11-10T00:37:30.584Z,931.28
2018-11-10T00:38:30.557Z,931.20
2018-11-10T00:39:30.546Z,931.25
2018-11-10T00:40:30.534Z,931.22
2018-11-10T00:41:30.535Z,931.22
2018-11-10T00:42:30.527Z,931.22
2018-11-10T00:43:30.503Z,931.22
2018-11-10T00:44:30.490Z,931.21
2018-11-10T00:45:30.480Z,931.18
2018-11-10T00:46:30.468Z,931.19
2018-11-10T00:47:30.484Z,931.19
2018-11-10T00:48:30.443Z,931.21
2018-11-10T00:49:30.432Z,931.17
2018-11-10T00:50:30.424Z,931.19
2018-11-10T00:51:30.410Z,931.18
2018-11-10T00:52:30.425Z,931.17
2018-11-10T00:53:30.396Z,931.16
2018-11-10T00:54:30.375Z,931.09
2018-11-10T00:55:30.365Z,931.12
2018-11-10T00:56:30.351Z,931.05
2018-11-10T00:57:30.357Z,931.06
2018-11-10T00:58:30.331Z,931.07
2018-11-10T00:59:30.333Z,931.03
2018-11-10T01:00:30.308Z,931.04
2018-11-10T01:01:30.298Z,931.04
2018-11-10T01:02:30.316Z,931.01
2018-11-10T01:03:30.272Z,931.03
2018-11-10T01:04:30.263Z,931.02
2018-11-10T01:05:30.285Z,930.98
2018-11-10T01:06:30.238Z,931.03
2018-11-10T01:07:30.226Z,931.02
2018-11-10T01:08:30.233Z,931.02
2018-11-10T01:09:30.206Z,931.04
2018-11-10T01:10:30.194Z,931.00
2018-11-10T01:11:30.189Z,931.04
2018-11-10T01:12:30.169Z,931.01
2018-11-10T01:13:30.173Z,931.06
2018-11-10T01:14:30.151Z,931.01
2018-11-10T01:15:30.134Z,931.05
2018-11-10T01:16:30.138Z,931.07
2018-11-10T01:17:30.112Z,931.03
2018-11-10T01:18:30.115Z,931.03
2018-11-10T01:19:30.094Z,931.07
2018-11-10T01:20:30.078Z,931.05
2018-11-10T01:21:30.068Z,931.02
2018-11-10T01:22:30.065Z,931.04
2018-11-10T01:23:30.059Z,931.01
2018-11-10T01:24:30.032Z,931.02
2018-11-10T01:25:30.020Z,930.98
2018-11-10T01:26:30.016Z,930.98
2018-11-10T01:27:29.997Z,930.99
2018-11-10T01:28:30.005Z,931.00
2018-11-10T01:29:29.991Z,930.95
2018-11-10T01:30:29.962Z,930.97
2018-11-10T01:31:29.954Z,931.01
2018-11-10T01:32:29.943Z,930.98
2018-11-10T01:33:29.944Z,931.02
2018-11-10T01:34:29.919Z,931.04
2018-11-10T01:35:29.921Z,931.06
2018-11-10T01:36:29.898Z,931.03
2018-11-10T01:37:29.882Z,931.03
2018-11-10T01:38:29.889Z,930.99
2018-11-10T01:39:29.861Z,931.02
2018-11-10T01:40:29.849Z,930.96
2018-11-10T01:41:29.845Z,930.97
2018-11-10T01:42:29.828Z,930.91
2018-11-10T01:43:29.831Z,930.96
2018-11-10T01:44:29.804Z,930.94
2018-11-10T01:45:29.794Z,930.97
2018-11-10T01:46:29.781Z,930.92
2018-11-10T01:47:29.778Z,930.91
2018-11-10T01:48:29.775Z,930.94
2018-11-10T01:49:29.751Z,930.85
2018-11-10T01:50:29.734Z,930.91
2018-11-10T01:51:29.728Z,930.88
2018-11-10T01:52:29.712Z,930.84
2018-11-10T01:53:29.726Z,930.83
2018-11-10T01:54:29.689Z,930.84
2018-11-10T01:55:29.679Z,930.88
2018-11-10T01:56:29.665Z,930.85
2018-11-10T01:57:29.657Z,930.83
2018-11-10T01:58:29.664Z,930.82
2018-11-10T01:59:29.643Z,930.84
2018-11-10T02:00:29.620Z,930.83
2018-11-10T02:01:29.609Z,930.78
2018-11-10T02:02:29.598Z,930.77
2018-11-10T02:03:29.602Z,930.76
2018-11-10T02:04:29.575Z,930.73
2018-11-10T02:05:29.574Z,930.75
2018-11-10T02:06:29.592Z,930.73
2018-11-10T02:07:29.542Z,930.72
2018-11-10T02:08:29.546Z,930.70
2018-11-10T02:09:29.521Z,930.69
2018-11-10T02:10:29.511Z,930.66
2018-11-10T02:11:29.511Z,930.69
2018-11-10T02:12:29.483Z,930.71
2018-11-10T02:13:29.489Z,930.69
2018-11-10T02:14:29.461Z,930.72
2018-11-10T02:15:29.450Z,930.67
2018-11-10T02:16:29.439Z,930.71
2018-11-10T02:17:29.438Z,930.71
2018-11-10T02:18:29.444Z,930.73
2018-11-10T02:19:29.453Z,930.74
2018-11-10T02:20:29.393Z,930.78
2018-11-10T02:21:29.382Z,930.80
2018-11-10T02:22:29.371Z,930.83
2018-11-10T02:23:29.368Z,930.80
2018-11-10T02:24:29.363Z,930.83
2018-11-10T02:25:29.336Z,930.86
2018-11-10T02:26:29.325Z,930.88
2018-11-10T02:27:29.315Z,930.85
2018-11-10T02:28:29.301Z,930.82
2018-11-10T02:29:29.322Z,930.76
2018-11-10T02:30:29.284Z,930.76
2018-11-10T02:31:29.266Z,930.78
2018-11-10T02:32:29.255Z,930.75
2018-11-10T02:33:29.245Z,930.77
2018-11-10T02:34:29.249Z,930.76
2018-11-10T02:35:29.235Z,930.75
2018-11-10T02:36:29.213Z,930.76
2018-11-10T02:37:29.203Z,930.71
2018-11-10T02:38:29.190Z,930.68
2018-11-10T02:39:29.190Z,930.67
2018-11-10T02:40:29.166Z,930.67
2018-11-10T02:41:29.164Z,930.63
2018-11-10T02:42:29.142Z,930.62
2018-11-10T02:43:29.133Z,930.58
2018-11-10T02:44:29.137Z,930.59
2018-11-10T02:45:29.108Z,930.57
2018-11-10T02:46:29.097Z,930.56
2018-11-10T02:47:29.095Z,930.58
2018-11-10T02:48:29.074Z,930.54
2018-11-10T02:49:29.080Z,930.53
2018-11-10T02:50:29.052Z,930.54
2018-11-10T02:51:29.042Z,930.56
2018-11-10T02:52:29.031Z,930.52
2018-11-10T02:53:29.029Z,930.52
2018-11-10T02:54:29.023Z,930.55
2018-11-10T02:55:28.997Z,930.52
2018-11-10T02:56:28.985Z,930.50
2018-11-10T02:57:28.975Z,930.52
2018-11-10T02:58:28.963Z,930.54
2018-11-10T02:59:28.977Z,930.48
2018-11-10T03:00:28.940Z,930.46
2018-11-10T03:01:28.930Z,930.51
2018-11-10T03:02:28.917Z,930.45
2018-11-10T03:03:28.907Z,930.44
2018-11-10T03:04:28.909Z,930.42
2018-11-10T03:05:28.891Z,930.37
2018-11-10T03:06:28.872Z,930.33
2018-11-10T03:07:28.862Z,930.32
2018-11-10T03:08:28.850Z,930.32
2018-11-10T03:09:28.854Z,930.28
2018-11-10T03:10:28.879Z,930.28
2018-11-10T03:11:28.824Z,930.30
2018-11-10T03:12:28.803Z,930.27
2018-11-10T03:13:28.794Z,930.26
2018-11-10T03:14:28.797Z,930.25
2018-11-10T03:15:28.770Z,930.26
2018-11-10T03:16:28.857Z,930.23
2018-11-10T03:17:28.756Z,930.25
2018-11-10T03:18:28.738Z,930.27
2018-11-10T03:19:28.740Z,930.20
2018-11-10T03:20:28.716Z,930.22
2018-11-10T03:21:28.704Z,930.23
2018-11-10T03:22:28.694Z,930.23
2018-11-10T03:23:28.690Z,930.22
2018-11-10T03:24:28.686Z,930.21
2018-11-10T03:25:28.660Z,930.21
2018-11-10T03:26:28.647Z,930.20
2018-11-10T03:27:28.637Z,930.18
2018-11-10T03:28:28.626Z,930.16
2018-11-10T03:29:28.642Z,930.19
2018-11-10T03:30:28.606Z,930.24
2018-11-10T03:31:28.594Z,930.24
2018-11-10T03:32:28.580Z,930.23
2018-11-10T03:33:28.572Z,930.24
2018-11-10T03:34:28.576Z,930.17
2018-11-10T03:35:28.559Z,930.17
2018-11-10T03:36:28.539Z,930.16
2018-11-10T03:37:28.526Z,930.14
2018-11-10T03:38:28.513Z,930.14
2018-11-10T03:39:28.517Z,930.15
2018-11-10T03:40:28.492Z,930.13
2018-11-10T03:41:28.490Z,930.12
2018-11-10T03:42:28.470Z,930.13
2018-11-10T03:43:28.459Z,930.19
2018-11-10T03:44:28.462Z,930.14
2018-11-10T03:45:28.437Z,930.20
2018-11-10T03:46:28.426Z,930.20
2018-11-10T03:47:28.420Z,930.21
2018-11-10T03:48:28.403Z,930.15
2018-11-10T03:49:28.415Z,930.13
2018-11-10T03:50:28.381Z,930.15
2018-11-10T03:51:28.372Z,930.15
2018-11-10T03:52:28.359Z,930.13
2018-11-10T03:53:28.357Z,930.16
2018-11-10T03:54:28.336Z,930.13
2018-11-10T03:55:28.343Z,930.16
2018-11-10T03:56:28.314Z,930.11
2018-11-10T03:57:28.301Z,930.15
2018-11-10T03:58:28.292Z,930.14
2018-11-10T03:59:28.289Z,930.15
2018-11-10T04:00:28.284Z,930.12
2018-11-10T04:01:28.262Z,930.13
2018-11-10T04:02:28.246Z,930.09
2018-11-10T04:03:28.236Z,930.09
2018-11-10T04:04:28.238Z,930.06
2018-11-10T04:05:28.240Z,930.09
2018-11-10T04:06:28.202Z,930.06
2018-11-10T04:07:28.190Z,930.07
2018-11-10T04:08:28.181Z,930.05
2018-11-10T04:09:28.169Z,930.06
2018-11-10T04:10:28.172Z,930.07
2018-11-10T04:11:28.161Z,930.07
2018-11-10T04:12:28.134Z,930.06
2018-11-10T04:13:28.124Z,930.06
2018-11-10T04:14:28.112Z,930.07
2018-11-10T04:15:28.121Z,930.11
2018-11-10T04:16:28.091Z,930.07
2018-11-10T04:17:28.088Z,930.06
2018-11-10T04:18:28.068Z,930.04
2018-11-10T04:19:28.056Z,930.05
2018-11-10T04:20:28.060Z,930.08
2018-11-10T04:21:28.035Z,930.03
2018-11-10T04:22:28.023Z,930.00
2018-11-10T04:23:28.023Z,929.98
2018-11-10T04:24:28.001Z,930.01
2018-11-10T04:25:28.006Z,929.96
2018-11-10T04:26:27.980Z,929.93
2018-11-10T04:27:27.965Z,929.89
2018-11-10T04:28:27.956Z,929.91
2018-11-10T04:29:27.952Z,929.93
2018-11-10T04:30:27.949Z,929.93
2018-11-10T04:31:27.924Z,929.89
2018-11-10T04:32:27.911Z,929.91
2018-11-10T04:33:27.903Z,929.88
2018-11-10T04:34:27.888Z,929.86
2018-11-10T04:35:27.902Z,929.89
2018-11-10T04:36:27.865Z,929.91
2018-11-10T04:37:27.853Z,929.91
2018-11-10T04:38:27.844Z,929.93
2018-11-10T04:39:27.834Z,929.96
2018-11-10T04:40:27.835Z,929.95
2018-11-10T04:41:27.817Z,929.96
2018-11-10T04:42:27.797Z,929.95
2018-11-10T04:43:27.787Z,929.94
2018-11-10T04:44:27.777Z,929.96
2018-11-10T04:45:27.778Z,929.92
2018-11-10T04:46:27.751Z,929.92
2018-11-10T04:47:27.751Z,929.90
2018-11-10T04:48:27.733Z,929.90
2018-11-10T04:49:27.719Z,929.91
2018-11-10T04:50:27.745Z,929.90
2018-11-10T04:51:27.698Z,929.92
2018-11-10T04:52:27.686Z,929.91
2018-11-10T04:53:27.679Z,929.89
2018-11-10T04:54:27.662Z,929.91
2018-11-10T04:55:27.652Z,929.93
2018-11-10T04:56:27.661Z,929.93
2018-11-10T04:57:27.629Z,929.93
2018-11-10T04:58:27.618Z,929.88
2018-11-10T04:59:27.613Z,929.90
2018-11-10T05:00:27.596Z,929.86
2018-11-10T05:01:27.648Z,929.86
2018-11-10T05:02:27.572Z,929.85
2018-11-10T05:03:27.561Z,929.85
2018-11-10T05:04:27.550Z,929.89
2018-11-10T05:05:27.545Z,929.88
2018-11-10T05:06:27.546Z,929.92
2018-11-10T05:07:27.515Z,929.89
2018-11-10T05:08:27.505Z,929.90
2018-11-10T05:09:27.492Z,929.90
2018-11-10T05:10:27.483Z,929.87
2018-11-10T05:11:27.495Z,929.85
2018-11-10T05:12:27.458Z,929.83
2018-11-10T05:13:27.451Z,929.82
2018-11-10T05:14:27.439Z,929.81
2018-11-10T05:15:27.425Z,929.84
2018-11-10T05:16:27.431Z,929.80
2018-11-10T05:17:27.412Z,929.77
2018-11-10T05:18:27.394Z,929.80
2018-11-10T05:19:27.378Z,929.77
2018-11-10T05:20:27.367Z,929.77
2018-11-10T05:21:27.369Z,929.75
2018-11-10T05:22:27.344Z,929.77
2018-11-10T05:23:27.340Z,929.76
2018-11-10T05:24:27.322Z,929.77
2018-11-10T05:25:27.311Z,929.77
2018-11-10T05:26:27.316Z,929.77
2018-11-10T05:27:27.288Z,929.75
2018-11-10T05:28:27.276Z,929.77
2018-11-10T05:29:27.274Z,929.78
2018-11-10T05:30:27.253Z,929.80
2018-11-10T05:31:27.258Z,929.76
2018-11-10T05:32:27.231Z,929.76
2018-11-10T05:33:27.219Z,929.74
2018-11-10T05:34:27.209Z,929.72
2018-11-10T05:35:27.209Z,929.77
2018-11-10T05:36:27.202Z,929.71
2018-11-10T05:37:27.175Z,929.75
2018-11-10T05:38:27.163Z,929.77
2018-11-10T05:39:27.150Z,929.76
2018-11-10T05:40:27.142Z,929.75
2018-11-10T05:41:27.159Z,929.77
2018-11-10T05:42:27.115Z,929.78
2018-11-10T05:43:27.108Z,929.75
2018-11-10T05:44:27.094Z,929.72
2018-11-10T05:45:27.083Z,929.70
2018-11-10T05:46:27.086Z,929.70
2018-11-10T05:47:27.071Z,929.70
2018-11-10T05:48:27.088Z,929.72
2018-11-10T05:49:27.077Z,929.64
2018-11-10T05:50:27.059Z,929.64
2018-11-10T05:51:27.030Z,929.69
2018-11-10T05:52:27.008Z,929.64
2018-11-10T05:53:27.046Z,929.64
2018-11-10T05:54:26.981Z,929.64
2018-11-10T05:55:26.968Z,929.62
2018-11-10T05:56:26.973Z,929.63
2018-11-10T05:57:26.948Z,929.62
2018-11-10T05:58:26.936Z,929.60
2018-11-10T05:59:26.940Z,929.57
2018-11-10T06:00:26.912Z,929.55
2018-11-10T06:01:26.916Z,929.60
2018-11-10T06:02:26.889Z,929.59
2018-11-10T06:03:26.879Z,929.57
2018-11-10T06:04:26.867Z,929.53
2018-11-10T06:05:26.865Z,929.56
2018-11-10T06:06:26.910Z,929.54
2018-11-10T06:07:26.831Z,929.58
2018-11-10T06:08:26.822Z,929.52
2018-11-10T06:09:26.829Z,929.54
2018-11-10T06:10:26.867Z,929.49
2018-11-10T06:11:26.799Z,929.48
2018-11-10T06:12:26.789Z,929.53
2018-11-10T06:13:26.765Z,929.51
2018-11-10T06:14:26.754Z,929.53
2018-11-10T06:15:26.740Z,929.47
2018-11-10T06:16:26.731Z,929.52
2018-11-10T06:17:26.757Z,929.53
2018-11-10T06:18:26.709Z,929.53
2018-11-10T06:19:26.697Z,929.50
2018-11-10T06:20:26.684Z,929.51
2018-11-10T06:21:26.672Z,929.52
2018-11-10T06:22:26.676Z,929.52
2018-11-10T06:23:26.660Z,929.53
2018-11-10T06:24:26.639Z,929.52
2018-11-10T06:25:26.634Z,929.49
2018-11-10T06:26:26.619Z,929.53
2018-11-10T06:27:26.622Z,929.50
2018-11-10T06:28:26.593Z,929.49
2018-11-10T06:29:26.590Z,929.51
2018-11-10T06:30:26.574Z,929.53
2018-11-10T06:31:26.558Z,929.48
2018-11-10T06:32:26.567Z,929.50
2018-11-10T06:33:26.537Z,929.53
2018-11-10T06:34:26.524Z,929.54
2018-11-10T06:35:26.522Z,929.57
2018-11-10T06:36:26.501Z,929.58
2018-11-10T06:37:26.509Z,929.60
2018-11-10T06:38:26.480Z,929.57
2018-11-10T06:39:26.466Z,929.56
2018-11-10T06:40:26.456Z,929.56
2018-11-10T06:41:26.564Z,929.58
2018-11-10T06:42:26.447Z,929.47
2018-11-10T06:43:26.422Z,929.49
2018-11-10T06:44:26.411Z,929.54
2018-11-10T06:45:26.398Z,929.57
2018-11-10T06:46:26.389Z,929.60
2018-11-10T06:47:26.400Z,929.55
2018-11-10T06:48:26.365Z,929.58
2018-11-10T06:49:26.355Z,929.57
2018-11-10T06:50:26.344Z,929.57
2018-11-10T06:51:26.331Z,929.61
2018-11-10T06:52:26.340Z,929.56
2018-11-10T06:53:26.317Z,929.56
2018-11-10T06:54:26.299Z,929.56
2018-11-10T06:55:26.290Z,929.57
2018-11-10T06:56:26.280Z,929.57
2018-11-10T06:57:26.282Z,929.57
2018-11-10T06:58:26.253Z,929.48
2018-11-10T06:59:26.250Z,929.52
2018-11-10T07:00:26.239Z,929.49
2018-11-10T07:01:26.219Z,929.51
2018-11-10T07:02:26.225Z,929.45
2018-11-10T07:03:26.356Z,929.47
2018-11-10T07:04:26.187Z,929.50
2018-11-10T07:05:26.181Z,929.50
2018-11-10T07:06:26.170Z,929.51
2018-11-10T07:07:26.168Z,929.47
2018-11-10T07:08:26.141Z,929.48
2018-11-10T07:09:26.200Z,929.51
2018-11-10T07:10:26.118Z,929.51
2018-11-10T07:11:26.116Z,929.49
2018-11-10T07:12:26.112Z,929.54
2018-11-10T07:13:26.084Z,929.56
2018-11-10T07:14:26.073Z,929.57
2018-11-10T07:15:26.061Z,929.55
2018-11-10T07:16:26.048Z,929.57
2018-11-10T07:17:26.062Z,929.54
2018-11-10T07:18:26.033Z,929.50
2018-11-10T07:19:26.019Z,929.51
2018-11-10T07:20:26.004Z,929.52
2018-11-10T07:21:25.994Z,929.57
2018-11-10T07:22:26.000Z,929.57
2018-11-10T07:23:25.980Z,929.54
2018-11-10T07:24:25.957Z,929.57
2018-11-10T07:25:25.948Z,929.57
2018-11-10T07:26:25.936Z,929.56
2018-11-10T07:27:25.959Z,929.59
2018-11-10T07:28:25.913Z,929.56
2018-11-10T07:29:25.912Z,929.52
2018-11-10T07:30:25.890Z,929.52
2018-11-10T07:31:25.881Z,929.53
2018-11-10T07:32:25.870Z,929.46
2018-11-10T07:33:25.876Z,929.45
2018-11-10T07:34:25.845Z,929.45
2018-11-10T07:35:25.842Z,929.42
2018-11-10T07:36:25.827Z,929.46
2018-11-10T07:37:25.837Z,929.45
2018-11-10T07:38:25.818Z,929.45
2018-11-10T07:39:25.791Z,929.46
2018-11-10T07:40:25.778Z,929.42
2018-11-10T07:41:25.773Z,929.40
2018-11-10T07:42:25.759Z,929.40
2018-11-10T07:43:25.763Z,929.37
2018-11-10T07:44:25.735Z,929.37
2018-11-10T07:45:25.722Z,929.32
2018-11-10T07:46:25.712Z,929.36
2018-11-10T07:47:25.710Z,929.30
2018-11-10T07:48:25.704Z,929.31
2018-11-10T07:49:25.758Z,929.34
2018-11-10T07:50:25.665Z,929.26
2018-11-10T07:51:25.816Z,929.27
2018-11-10T07:52:25.648Z,929.28
2018-11-10T07:53:25.655Z,929.23
2018-11-10T07:54:25.685Z,929.26
2018-11-10T07:55:25.614Z,929.27
2018-11-10T07:56:25.599Z,929.27
2018-11-10T07:57:25.588Z,929.31
2018-11-10T07:58:25.590Z,929.31
2018-11-10T07:59:25.572Z,929.32
2018-11-10T08:00:25.556Z,929.33
2018-11-10T08:01:25.544Z,929.35
2018-11-10T08:02:25.536Z,929.32
2018-11-10T08:03:25.536Z,929.30
2018-11-10T08:04:25.667Z,929.32
2018-11-10T08:05:25.507Z,929.31
2018-11-10T08:06:25.488Z,929.37
2018-11-10T08:07:25.478Z,929.33
2018-11-10T08:08:25.484Z,929.35
2018-11-10T08:09:25.456Z,929.34
2018-11-10T08:10:25.446Z,929.34
2018-11-10T08:11:25.448Z,929.35
2018-11-10T08:12:25.422Z,929.36
2018-11-10T08:13:25.424Z,929.33
2018-11-10T08:14:25.397Z,929.34
2018-11-10T08:15:25.386Z,929.36
2018-11-10T08:16:25.374Z,929.33
2018-11-10T08:17:25.371Z,929.29
2018-11-10T08:18:25.383Z,929.29
2018-11-10T08:19:25.344Z,929.29
2018-11-10T08:20:25.330Z,929.29
2018-11-10T08:21:25.321Z,929.24
2018-11-10T08:22:25.309Z,929.23
2018-11-10T08:23:25.326Z,929.24
2018-11-10T08:24:25.289Z,929.21
2018-11-10T08:25:25.275Z,929.21
2018-11-10T08:26:25.264Z,929.19
2018-11-10T08:27:25.253Z,929.23
2018-11-10T08:28:25.258Z,929.21
2018-11-10T08:29:25.247Z,929.19
2018-11-10T08:30:25.218Z,929.20
2018-11-10T08:31:25.333Z,929.18
2018-11-10T08:32:25.203Z,929.17
2018-11-10T08:33:25.201Z,929.19
2018-11-10T08:34:25.177Z,929.19
2018-11-10T08:35:25.175Z,929.21
2018-11-10T08:36:25.153Z,929.22
2018-11-10T08:37:25.142Z,929.24
2018-11-10T08:38:25.147Z,929.23
2018-11-10T08:39:25.119Z,929.21
2018-11-10T08:40:25.113Z,929.25
2018-11-10T08:41:25.110Z,929.23
2018-11-10T08:42:25.088Z,929.25
2018-11-10T08:43:25.113Z,929.23
2018-11-10T08:44:25.065Z,929.26
2018-11-10T08:45:25.055Z,929.23
2018-11-10T08:46:25.051Z,929.23
2018-11-10T08:47:25.030Z,929.22
2018-11-10T08:48:25.019Z,929.18
2018-11-10T08:49:25.083Z,929.20
2018-11-10T08:50:24.997Z,929.19
2018-11-10T08:51:24.988Z,929.21
2018-11-10T08:52:24.983Z,929.20
2018-11-10T08:53:24.963Z,929.24
2018-11-10T08:54:24.967Z,929.23
2018-11-10T08:55:24.941Z,929.26
2018-11-10T08:56:24.928Z,929.27
2018-11-10T08:57:24.984Z,929.23
2018-11-10T08:58:24.920Z,929.22
2018-11-10T08:59:24.912Z,929.25
2018-11-10T09:00:24.886Z,929.22
2018-11-10T09:01:24.873Z,929.20
2018-11-10T09:02:24.863Z,929.23
2018-11-10T09:03:24.850Z,929.19
2018-11-10T09:04:24.869Z,929.20
2018-11-10T09:05:24.828Z,929.15
2018-11-10T09:06:24.817Z,929.16
2018-11-10T09:07:24.809Z,929.15
2018-11-10T09:08:24.797Z,929.13
2018-11-10T09:09:24.798Z,929.11
2018-11-10T09:10:24.789Z,929.11
2018-11-10T09:11:24.763Z,929.10
2018-11-10T09:12:24.751Z,929.13
2018-11-10T09:13:24.747Z,929.14
2018-11-10T09:14:24.745Z,929.17
2018-11-10T09:15:24.717Z,929.14
2018-11-10T09:16:24.716Z,929.17
2018-11-10T09:17:24.696Z,929.15
2018-11-10T09:18:24.685Z,929.17
2018-11-10T09:19:24.691Z,929.17
2018-11-10T09:20:24.663Z,929.16
2018-11-10T09:21:24.772Z,929.22
2018-11-10T09:22:24.650Z,929.21
2018-11-10T09:23:24.629Z,929.21
2018-11-10T09:24:24.631Z,929.24
2018-11-10T09:25:24.606Z,929.23
2018-11-10T09:26:24.596Z,929.24
2018-11-10T09:27:24.582Z,929.27
2018-11-10T09:28:24.593Z,929.24
2018-11-10T09:29:24.576Z,929.23
2018-11-10T09:30:24.549Z,929.26
2018-11-10T09:31:24.540Z,929.27
2018-11-10T09:32:24.529Z,929.26
2018-11-10T09:33:24.518Z,929.24
2018-11-10T09:34:24.534Z,929.18
2018-11-10T09:35:24.495Z,929.19
2018-11-10T09:36:24.542Z,929.18
2018-11-10T09:37:24.477Z,929.13
2018-11-10T09:38:24.461Z,929.22
2018-11-10T09:39:24.465Z,929.08
2018-11-10T09:40:24.446Z,929.11
2018-11-10T09:41:24.435Z,929.03
2018-11-10T09:42:24.863Z,929.08
2018-11-10T09:43:24.405Z,929.14
2018-11-10T09:44:24.408Z,929.13
2018-11-10T09:45:24.383Z,929.11
2018-11-10T09:46:24.382Z,929.11
2018-11-10T09:47:24.416Z,929.12
2018-11-10T09:48:24.350Z,929.15
2018-11-10T09:49:24.374Z,929.13
2018-11-10T09:50:24.380Z,929.10
2018-11-10T09:51:24.348Z,929.13
2018-11-10T09:52:24.313Z,929.08
2018-11-10T09:53:24.295Z,929.05
2018-11-10T09:54:24.298Z,929.02
2018-11-10T09:55:24.272Z,929.01
2018-11-10T09:56:24.307Z,928.99
2018-11-10T09:57:24.249Z,928.98
2018-11-10T09:58:24.245Z,929.02
2018-11-10T09:59:24.241Z,928.98
2018-11-10T10:00:24.221Z,929.02
2018-11-10T10:01:24.338Z,929.00
2018-11-10T10:02:24.717Z,929.00
2018-11-10T10:03:24.182Z,929.02
2018-11-10T10:04:24.193Z,928.97
2018-11-10T10:05:24.162Z,928.96
2018-11-10T10:06:24.150Z,928.96
2018-11-10T10:07:24.138Z,928.93
2018-11-10T10:08:24.127Z,928.97
2018-11-10T10:09:24.134Z,928.90
2018-11-10T10:10:24.115Z,928.93
2018-11-10T10:11:24.093Z,928.90
2018-11-10T10:12:24.083Z,928.91
2018-11-10T10:13:24.070Z,928.92
2018-11-10T10:14:24.075Z,928.90
2018-11-10T10:15:24.047Z,928.96
2018-11-10T10:16:24.209Z,928.97
2018-11-10T10:17:24.026Z,928.94
2018-11-10T10:18:24.016Z,928.97
2018-11-10T10:19:24.020Z,928.98
2018-11-10T10:20:23.992Z,928.99
2018-11-10T10:21:23.981Z,928.91
2018-11-10T10:22:23.977Z,928.95
2018-11-10T10:23:23.960Z,928.92
2018-11-10T10:24:23.969Z,928.87
2018-11-10T10:25:23.937Z,928.97
2018-11-10T10:26:23.936Z,928.87
2018-11-10T10:27:23.915Z,928.90
2018-11-10T10:28:23.934Z,928.86
2018-11-10T10:29:23.893Z,928.87
2018-11-10T10:30:23.896Z,928.86
2018-11-10T10:31:23.871Z,928.84
2018-11-10T10:32:23.863Z,928.84
2018-11-10T10:33:23.847Z,928.81
2018-11-10T10:34:23.911Z,928.82
2018-11-10T10:35:24.038Z,928.78
2018-11-10T10:36:23.814Z,928.74
2018-11-10T10:37:23.805Z,928.77
2018-11-10T10:38:23.794Z,928.73
2018-11-10T10:39:23.787Z,928.71
2018-11-10T10:40:23.803Z,928.72
2018-11-10T10:41:23.758Z,928.71
2018-11-10T10:42:23.747Z,928.70
2018-11-10T10:43:23.738Z,928.72
2018-11-10T10:44:23.725Z,928.68
2018-11-10T10:45:23.729Z,928.68
2018-11-10T10:46:23.713Z,928.74
2018-11-10T10:47:23.692Z,928.68
2018-11-10T10:48:23.748Z,928.68
2018-11-10T10:49:23.668Z,928.69
2018-11-10T10:50:23.672Z,928.67
2018-11-10T10:51:23.646Z,928.64
2018-11-10T10:52:23.651Z,928.68
2018-11-10T10:53:23.628Z,928.66
2018-11-10T10:54:23.613Z,928.68
2018-11-10T10:55:23.621Z,928.66
2018-11-10T10:56:23.623Z,928.64
2018-11-10T10:57:23.580Z,928.62
2018-11-10T10:58:23.580Z,928.62
2018-11-10T10:59:23.558Z,928.59
2018-11-10T11:00:23.566Z,928.62
2018-11-10T11:01:23.537Z,928.64
2018-11-10T11:02:23.525Z,928.57
2018-11-10T11:03:23.528Z,928.62
2018-11-10T11:04:23.514Z,928.59
2018-11-10T11:05:23.506Z,928.60
2018-11-10T11:06:23.480Z,928.59
2018-11-10T11:07:23.470Z,928.59
2018-11-10T11:08:23.458Z,928.54
2018-11-10T11:09:23.462Z,928.55
2018-11-10T11:10:23.461Z,928.54
2018-11-10T11:11:23.426Z,928.53
2018-11-10T11:12:23.415Z,928.56
2018-11-10T11:13:23.406Z,928.55
2018-11-10T11:14:23.393Z,928.56
2018-11-10T11:15:23.740Z,928.56
2018-11-10T11:16:23.379Z,928.58
2018-11-10T11:17:23.363Z,928.53
2018-11-10T11:18:23.348Z,928.57
2018-11-10T11:19:23.337Z,928.55
2018-11-10T11:20:23.355Z,928.52
2018-11-10T11:21:23.317Z,928.55
2018-11-10T11:22:23.316Z,928.51
2018-11-10T11:23:23.295Z,928.54
2018-11-10T11:24:23.284Z,928.53
2018-11-10T11:25:23.288Z,928.63
2018-11-10T11:26:23.265Z,928.60
2018-11-10T11:27:23.250Z,928.68
2018-11-10T11:28:23.247Z,928.68
2018-11-10T11:29:23.399Z,928.63
2018-11-10T11:30:23.238Z,928.59
2018-11-10T11:31:23.227Z,928.65
2018-11-10T11:32:23.199Z,928.63
2018-11-10T11:33:23.190Z,928.63
2018-11-10T11:34:23.183Z,928.66
2018-11-10T11:35:23.204Z,928.67
2018-11-10T11:36:23.153Z,928.69
2018-11-10T11:37:23.141Z,928.67
2018-11-10T11:38:23.130Z,928.64
2018-11-10T11:39:23.124Z,928.68
2018-11-10T11:40:23.137Z,928.66
2018-11-10T11:41:23.202Z,928.64
2018-11-10T11:42:23.091Z,928.70
2018-11-10T11:43:23.076Z,928.62
2018-11-10T11:44:23.064Z,928.65
2018-11-10T11:45:23.067Z,928.68
2018-11-10T11:46:23.051Z,928.62
2018-11-10T11:47:23.035Z,928.67
2018-11-10T11:48:23.019Z,928.64
2018-11-10T11:49:23.008Z,928.55
2018-11-10T11:50:23.012Z,928.59
2018-11-10T11:51:22.987Z,928.55
2018-11-10T11:52:22.985Z,928.55
2018-11-10T11:53:22.966Z,928.54
2018-11-10T11:54:22.954Z,928.56
2018-11-10T11:55:22.959Z,928.60
2018-11-10T11:56:22.929Z,928.59
2018-11-10T11:57:22.919Z,928.57
2018-11-10T11:58:23.037Z,928.62
2018-11-10T11:59:22.897Z,928.62
2018-11-10T12:00:22.904Z,928.64
2018-11-10T12:01:22.876Z,928.62
2018-11-10T12:02:22.864Z,928.61
2018-11-10T12:03:22.852Z,928.58
2018-11-10T12:04:22.879Z,928.64
2018-11-10T12:05:22.849Z,928.66
2018-11-10T12:06:22.817Z,928.69
2018-11-10T12:07:22.807Z,928.69
2018-11-10T12:08:22.796Z,928.58
2018-11-10T12:09:22.785Z,928.61
2018-11-10T12:10:22.800Z,928.60
2018-11-10T12:11:22.760Z,928.61
2018-11-10T12:12:22.749Z,928.65
2018-11-10T12:13:22.741Z,928.61
2018-11-10T12:14:22.727Z,928.58
2018-11-10T12:15:22.757Z,928.60
2018-11-10T12:16:27.195Z,928.60
2018-11-10T12:17:22.694Z,928.63
2018-11-10T12:18:22.681Z,928.64
2018-11-10T12:19:22.670Z,928.69
2018-11-10T12:20:22.662Z,928.70
2018-11-10T12:21:22.665Z,928.70
2018-11-10T12:22:22.651Z,928.68
2018-11-10T12:23:22.628Z,928.68
2018-11-10T12:24:22.616Z,928.69
2018-11-10T12:25:22.604Z,928.64
2018-11-10T12:26:22.612Z,928.68
2018-11-10T12:27:22.595Z,928.60
2018-11-10T12:28:22.580Z,928.63